Illinois River (Oklahoma), Tahlequah (07196500)

StateOklahomaCurrentGood (4210 cfs)
RiverIllinois RiverFlood - The river is flooding. Obstacles can be treacherous or deadly. The river should be avoided at this stage for casual trips and definitely for the inexperienced. Trips should be attempted only with protective gear and equipment.Flood(none)
Updated2019-10-13 20:30 (9 minutes ago)High - The river is high and potentially dangerous, especially for the young and / or inexperienced. Normal stream obstacles are sometimes difficult to navigate. Extended distances can be attempted, but canoe travel may not be advisable.High(none)
Discharge4210 cfs (median: 226 cfs)Good - Conditions are ideal for a canoe or kayak. Boats typically will drag on fewer than one-quarter of riffles, if at all, and portages are unnecessary or rare. Normal float lengths can be attempted without a problem.Good300
Height8.6 feetLow - River is low but can still be floated. Some riffles are okay but most come with significant dragging and might need a portage. Float lengths should be reduced to accommodate low flow, dragging, and portages.Low(none)
TrendFalling (falling over 24 hours)Poor - River is too low to float comfortably. Most or all riffles will drag or must be portaged and some obstacles (such as slick shelf rock) cause undue problems. Avoid the river at this stage for casual paddling trips.Poor(none)
USGSExternal icon USGS Site for Tahlequah (07196500)LocationExternal icon Google Maps

Trending Data

Plot Image
ObservationHeightDischargeMaximum
Discharge
Minimum
Discharge
Mean
Discharge
P05P10P20P25P50
(Median)
P75P80P90P95
2019-10-13 20:30 8.60 4210 3840 (2010) 0 (1957) 441 56 82 126 151 226 446 546 1110 1990
2019-10-13 19:30 8.62 4240 3840 (2010) 0 (1957) 441 56 82 126 151 226 446 546 1110 1990
2019-10-13 18:30 8.65 4290 3840 (2010) 0 (1957) 441 56 82 126 151 226 446 546 1110 1990
2019-10-13 17:30 8.71 4390 3840 (2010) 0 (1957) 441 56 82 126 151 226 446 546 1110 1990
2019-10-13 16:30 8.77 4490 3840 (2010) 0 (1957) 441 56 82 126 151 226 446 546 1110 1990
2019-10-13 15:30 8.85 4620 3840 (2010) 0 (1957) 441 56 82 126 151 226 446 546 1110 1990
2019-10-13 14:30 8.89 4690 3840 (2010) 0 (1957) 441 56 82 126 151 226 446 546 1110 1990
2019-10-13 13:30 8.94 4780 3840 (2010) 0 (1957) 441 56 82 126 151 226 446 546 1110 1990
2019-10-13 12:30 9.01 4900 3840 (2010) 0 (1957) 441 56 82 126 151 226 446 546 1110 1990
2019-10-13 11:30 9.05 4970 3840 (2010) 0 (1957) 441 56 82 126 151 226 446 546 1110 1990
2019-10-13 10:30 9.13 5110 3840 (2010) 0 (1957) 441 56 82 126 151 226 446 546 1110 1990
2019-10-13 09:30 9.24 5300 3840 (2010) 0 (1957) 441 56 82 126 151 226 446 546 1110 1990
2019-10-13 08:30 9.27 5360 3840 (2010) 0 (1957) 441 56 82 126 151 226 446 546 1110 1990
2019-10-13 07:30 9.41 5620 3840 (2010) 0 (1957) 441 56 82 126 151 226 446 546 1110 1990
2019-10-13 06:30 9.47 5730 3840 (2010) 0 (1957) 441 56 82 126 151 226 446 546 1110 1990
2019-10-13 05:30 9.51 5800 3840 (2010) 0 (1957) 441 56 82 126 151 226 446 546 1110 1990
2019-10-13 04:30 9.68 6130 3840 (2010) 0 (1957) 441 56 82 126 151 226 446 546 1110 1990
2019-10-13 03:30 9.76 6280 3840 (2010) 0 (1957) 441 56 82 126 151 226 446 546 1110 1990
2019-10-13 02:30 9.83 6420 3840 (2010) 0 (1957) 441 56 82 126 151 226 446 546 1110 1990
2019-10-13 01:30 9.96 6680 3840 (2010) 0 (1957) 441 56 82 126 151 226 446 546 1110 1990
2019-10-13 00:30 10.11 6980 3840 (2010) 0 (1957) 441 56 82 126 151 226 446 546 1110 1990
2019-10-12 23:30 10.32 7420 4970 (2010) 0 (1957) 457 60 84 126 139 223 455 536 894 2260
2019-10-12 22:30 10.61 8050 4970 (2010) 0 (1957) 457 60 84 126 139 223 455 536 894 2260
2019-10-12 21:30 10.86 8600 4970 (2010) 0 (1957) 457 60 84 126 139 223 455 536 894 2260
2019-10-12 20:30 11.40 9870 4970 (2010) 0 (1957) 457 60 84 126 139 223 455 536 894 2260
2019-10-12 19:30 11.88 11100 4970 (2010) 0 (1957) 457 60 84 126 139 223 455 536 894 2260
2019-10-12 18:30 12.57 12900 4970 (2010) 0 (1957) 457 60 84 126 139 223 455 536 894 2260
2019-10-12 17:30 13.11 14400 4970 (2010) 0 (1957) 457 60 84 126 139 223 455 536 894 2260
2019-10-12 16:30 13.53 15600 4970 (2010) 0 (1957) 457 60 84 126 139 223 455 536 894 2260
2019-10-12 15:30 13.78 16400 4970 (2010) 0 (1957) 457 60 84 126 139 223 455 536 894 2260
2019-10-12 14:30 13.90 16800 4970 (2010) 0 (1957) 457 60 84 126 139 223 455 536 894 2260
2019-10-12 13:30 13.87 16700 4970 (2010) 0 (1957) 457 60 84 126 139 223 455 536 894 2260
2019-10-12 12:30 13.91 16800 4970 (2010) 0 (1957) 457 60 84 126 139 223 455 536 894 2260
2019-10-12 11:30 13.75 16300 4970 (2010) 0 (1957) 457 60 84 126 139 223 455 536 894 2260
2019-10-12 10:30 13.66 16000 4970 (2010) 0 (1957) 457 60 84 126 139 223 455 536 894 2260
2019-10-12 09:30 13.43 15300 4970 (2010) 0 (1957) 457 60 84 126 139 223 455 536 894 2260
2019-10-12 08:30 13.34 15100 4970 (2010) 0 (1957) 457 60 84 126 139 223 455 536 894 2260
2019-10-12 07:30 13.24 14800 4970 (2010) 0 (1957) 457 60 84 126 139 223 455 536 894 2260
2019-10-12 06:30 13.20 14700 4970 (2010) 0 (1957) 457 60 84 126 139 223 455 536 894 2260
2019-10-12 05:30 13.12 14400 4970 (2010) 0 (1957) 457 60 84 126 139 223 455 536 894 2260
2019-10-12 04:30 13.01 14100 4970 (2010) 0 (1957) 457 60 84 126 139 223 455 536 894 2260
2019-10-12 03:30 12.99 14100 4970 (2010) 0 (1957) 457 60 84 126 139 223 455 536 894 2260
2019-10-12 02:30 12.85 13700 4970 (2010) 0 (1957) 457 60 84 126 139 223 455 536 894 2260
2019-10-12 01:30 12.78 13500 4970 (2010) 0 (1957) 457 60 84 126 139 223 455 536 894 2260
2019-10-12 00:30 12.68 13200 4970 (2010) 0 (1957) 457 60 84 126 139 223 455 536 894 2260
2019-10-11 23:30 12.53 12800 14400 (2010) 0 (1957) 583 64 84 125 137 221 475 576 1150 1770
2019-10-11 22:30 12.36 12300 14400 (2010) 0 (1957) 583 64 84 125 137 221 475 576 1150 1770
2019-10-11 21:30 12.17 11800 14400 (2010) 0 (1957) 583 64 84 125 137 221 475 576 1150 1770
2019-10-11 20:30 11.93 11200 14400 (2010) 0 (1957) 583 64 84 125 137 221 475 576 1150 1770
2019-10-11 19:30 11.69 10600 14400 (2010) 0 (1957) 583 64 84 125 137 221 475 576 1150 1770
2019-10-11 18:30 11.44 9970 14400 (2010) 0 (1957) 583 64 84 125 137 221 475 576 1150 1770
2019-10-11 17:30 11.12 9200 14400 (2010) 0 (1957) 583 64 84 125 137 221 475 576 1150 1770
2019-10-11 16:30 10.81 8490 14400 (2010) 0 (1957) 583 64 84 125 137 221 475 576 1150 1770
2019-10-11 15:30 10.39 7570 14400 (2010) 0 (1957) 583 64 84 125 137 221 475 576 1150 1770
2019-10-11 14:30 9.98 6720 14400 (2010) 0 (1957) 583 64 84 125 137 221 475 576 1150 1770
2019-10-11 13:30 9.56 5900 14400 (2010) 0 (1957) 583 64 84 125 137 221 475 576 1150 1770
2019-10-11 12:30 9.17 5180 14400 (2010) 0 (1957) 583 64 84 125 137 221 475 576 1150 1770
2019-10-11 11:30 8.82 4570 14400 (2010) 0 (1957) 583 64 84 125 137 221 475 576 1150 1770
2019-10-11 10:30 8.46 3980 14400 (2010) 0 (1957) 583 64 84 125 137 221 475 576 1150 1770
2019-10-11 09:30 8.17 3510 14400 (2010) 0 (1957) 583 64 84 125 137 221 475 576 1150 1770
2019-10-11 08:30 7.97 3200 14400 (2010) 0 (1957) 583 64 84 125 137 221 475 576 1150 1770
2019-10-11 07:30 7.84 3010 14400 (2010) 0 (1957) 583 64 84 125 137 221 475 576 1150 1770
2019-10-11 06:30 7.77 2900 14400 (2010) 0 (1957) 583 64 84 125 137 221 475 576 1150 1770
2019-10-11 05:30 7.72 2830 14400 (2010) 0 (1957) 583 64 84 125 137 221 475 576 1150 1770
2019-10-11 04:30 7.70 2800 14400 (2010) 0 (1957) 583 64 84 125 137 221 475 576 1150 1770
2019-10-11 03:30 7.68 2780 14400 (2010) 0 (1957) 583 64 84 125 137 221 475 576 1150 1770
2019-10-11 02:30 7.64 2720 14400 (2010) 0 (1957) 583 64 84 125 137 221 475 576 1150 1770
2019-10-11 01:30 7.62 2690 14400 (2010) 0 (1957) 583 64 84 125 137 221 475 576 1150 1770
2019-10-11 00:30 7.57 2620 14400 (2010) 0 (1957) 583 64 84 125 137 221 475 576 1150 1770
2019-10-10 23:30 7.55 2600 26200 (2010) 0 (1957) 747 66 84 129 140 224 489 554 1010 1840
2019-10-10 22:30 7.55 2600 26200 (2010) 0 (1957) 747 66 84 129 140 224 489 554 1010 1840
2019-10-10 21:30 7.50 2530 26200 (2010) 0 (1957) 747 66 84 129 140 224 489 554 1010 1840
2019-10-10 20:30 7.47 2490 26200 (2010) 0 (1957) 747 66 84 129 140 224 489 554 1010 1840
2019-10-10 19:30 7.46 2470 26200 (2010) 0 (1957) 747 66 84 129 140 224 489 554 1010 1840
2019-10-10 18:30 7.45 2460 26200 (2010) 0 (1957) 747 66 84 129 140 224 489 554 1010 1840
2019-10-10 17:30 7.43 2430 26200 (2010) 0 (1957) 747 66 84 129 140 224 489 554 1010 1840
2019-10-10 16:30 7.40 2390 26200 (2010) 0 (1957) 747 66 84 129 140 224 489 554 1010 1840
2019-10-10 15:30 7.43 2430 26200 (2010) 0 (1957) 747 66 84 129 140 224 489 554 1010 1840
2019-10-10 14:30 7.43 2430 26200 (2010) 0 (1957) 747 66 84 129 140 224 489 554 1010 1840
2019-10-10 13:30 7.46 2470 26200 (2010) 0 (1957) 747 66 84 129 140 224 489 554 1010 1840
2019-10-10 12:30 7.49 2510 26200 (2010) 0 (1957) 747 66 84 129 140 224 489 554 1010 1840
2019-10-10 11:30 7.50 2530 26200 (2010) 0 (1957) 747 66 84 129 140 224 489 554 1010 1840
2019-10-10 10:30 7.52 2550 26200 (2010) 0 (1957) 747 66 84 129 140 224 489 554 1010 1840
2019-10-10 09:30 7.55 2600 26200 (2010) 0 (1957) 747 66 84 129 140 224 489 554 1010 1840
2019-10-10 08:30 7.54 2580 26200 (2010) 0 (1957) 747 66 84 129 140 224 489 554 1010 1840
2019-10-10 07:30 7.58 2640 26200 (2010) 0 (1957) 747 66 84 129 140 224 489 554 1010 1840
2019-10-10 06:30 7.60 2660 26200 (2010) 0 (1957) 747 66 84 129 140 224 489 554 1010 1840
2019-10-10 05:30 7.65 2730 26200 (2010) 0 (1957) 747 66 84 129 140 224 489 554 1010 1840
2019-10-10 04:30 7.64 2720 26200 (2010) 0 (1957) 747 66 84 129 140 224 489 554 1010 1840
2019-10-10 03:30 7.67 2760 26200 (2010) 0 (1957) 747 66 84 129 140 224 489 554 1010 1840
2019-10-10 02:30 7.70 2800 26200 (2010) 0 (1957) 747 66 84 129 140 224 489 554 1010 1840
2019-10-10 01:30 7.74 2860 26200 (2010) 0 (1957) 747 66 84 129 140 224 489 554 1010 1840
2019-10-10 00:30 7.76 2890 26200 (2010) 0 (1957) 747 66 84 129 140 224 489 554 1010 1840
2019-10-09 23:30 7.79 2930 9390 (2010) 0 (1957) 538 59 82 128 145 226 452 559 965 2270
2019-10-09 22:30 7.82 2980 9390 (2010) 0 (1957) 538 59 82 128 145 226 452 559 965 2270
2019-10-09 21:30 7.83 2990 9390 (2010) 0 (1957) 538 59 82 128 145 226 452 559 965 2270
2019-10-09 20:30 7.87 3050 9390 (2010) 0 (1957) 538 59 82 128 145 226 452 559 965 2270
2019-10-09 19:30 7.91 3110 9390 (2010) 0 (1957) 538 59 82 128 145 226 452 559 965 2270
2019-10-09 18:30 7.95 3170 9390 (2010) 0 (1957) 538 59 82 128 145 226 452 559 965 2270
2019-10-09 17:30 7.96 3180 9390 (2010) 0 (1957) 538 59 82 128 145 226 452 559 965 2270
2019-10-09 16:30 8.00 3240 9390 (2010) 0 (1957) 538 59 82 128 145 226 452 559 965 2270
2019-10-09 15:30 8.03 3290 9390 (2010) 0 (1957) 538 59 82 128 145 226 452 559 965 2270
2019-10-09 14:30 8.08 3370 9390 (2010) 0 (1957) 538 59 82 128 145 226 452 559 965 2270
2019-10-09 13:30 8.09 3380 9390 (2010) 0 (1957) 538 59 82 128 145 226 452 559 965 2270
2019-10-09 12:30 8.14 3460 9390 (2010) 0 (1957) 538 59 82 128 145 226 452 559 965 2270
2019-10-09 11:30 8.17 3510 9390 (2010) 0 (1957) 538 59 82 128 145 226 452 559 965 2270
2019-10-09 10:30 8.24 3620 9390 (2010) 0 (1957) 538 59 82 128 145 226 452 559 965 2270
2019-10-09 09:30 8.30 3720 9390 (2010) 0 (1957) 538 59 82 128 145 226 452 559 965 2270
2019-10-09 08:30 8.35 3800 9390 (2010) 0 (1957) 538 59 82 128 145 226 452 559 965 2270
2019-10-09 07:30 8.40 3880 9390 (2010) 0 (1957) 538 59 82 128 145 226 452 559 965 2270
2019-10-09 06:30 8.48 4010 9390 (2010) 0 (1957) 538 59 82 128 145 226 452 559 965 2270
2019-10-09 05:30 8.52 4080 9390 (2010) 0 (1957) 538 59 82 128 145 226 452 559 965 2270
2019-10-09 04:30 8.59 4190 9390 (2010) 0 (1957) 538 59 82 128 145 226 452 559 965 2270
2019-10-09 03:30 8.63 4260 9390 (2010) 0 (1957) 538 59 82 128 145 226 452 559 965 2270
2019-10-09 02:30 8.72 4410 9390 (2010) 0 (1957) 538 59 82 128 145 226 452 559 965 2270
2019-10-09 01:30 8.77 4490 9390 (2010) 0 (1957) 538 59 82 128 145 226 452 559 965 2270
2019-10-09 00:30 8.86 4640 9390 (2010) 0 (1957) 538 59 82 128 145 226 452 559 965 2270
2019-10-08 23:30 8.94 4780 2690 (1960) 0 (1957) 398 55 80 124 148 218 471 589 820 1270
2019-10-08 22:30 9.00 4880 2690 (1960) 0 (1957) 398 55 80 124 148 218 471 589 820 1270
2019-10-08 21:30 9.07 5000 2690 (1960) 0 (1957) 398 55 80 124 148 218 471 589 820 1270
2019-10-08 20:30 9.15 5140 2690 (1960) 0 (1957) 398 55 80 124 148 218 471 589 820 1270
2019-10-08 19:30 9.25 5320 2690 (1960) 0 (1957) 398 55 80 124 148 218 471 589 820 1270
2019-10-08 18:30 9.36 5520 2690 (1960) 0 (1957) 398 55 80 124 148 218 471 589 820 1270
2019-10-08 17:30 9.44 5670 2690 (1960) 0 (1957) 398 55 80 124 148 218 471 589 820 1270
2019-10-08 16:30 9.59 5950 2690 (1960) 0 (1957) 398 55 80 124 148 218 471 589 820 1270
2019-10-08 15:30 9.75 6260 2690 (1960) 0 (1957) 398 55 80 124 148 218 471 589 820 1270
2019-10-08 14:30 10.03 6820 2690 (1960) 0 (1957) 398 55 80 124 148 218 471 589 820 1270
2019-10-08 13:30 10.29 7360 2690 (1960) 0 (1957) 398 55 80 124 148 218 471 589 820 1270
2019-10-08 12:30 10.68 8200 2690 (1960) 0 (1957) 398 55 80 124 148 218 471 589 820 1270
2019-10-08 11:30 11.16 9300 2690 (1960) 0 (1957) 398 55 80 124 148 218 471 589 820 1270
2019-10-08 10:30 11.85 11000 2690 (1960) 0 (1957) 398 55 80 124 148 218 471 589 820 1270
2019-10-08 09:30 12.77 13400 2690 (1960) 0 (1957) 398 55 80 124 148 218 471 589 820 1270
2019-10-08 08:30 13.75 16300 2690 (1960) 0 (1957) 398 55 80 124 148 218 471 589 820 1270
2019-10-08 07:30 14.69 19300 2690 (1960) 0 (1957) 398 55 80 124 148 218 471 589 820 1270
2019-10-08 06:30 15.62 22500 2690 (1960) 0 (1957) 398 55 80 124 148 218 471 589 820 1270
2019-10-08 05:30 16.35 25200 2690 (1960) 0 (1957) 398 55 80 124 148 218 471 589 820 1270
2019-10-08 04:30 17.11 28100 2690 (1960) 0 (1957) 398 55 80 124 148 218 471 589 820 1270
2019-10-08 03:30 17.88 31200 2690 (1960) 0 (1957) 398 55 80 124 148 218 471 589 820 1270
2019-10-08 02:30 18.37 33300 2690 (1960) 0 (1957) 398 55 80 124 148 218 471 589 820 1270
2019-10-08 01:30 19.05 36200 2690 (1960) 0 (1957) 398 55 80 124 148 218 471 589 820 1270
2019-10-08 00:30 19.81 39700 2690 (1960) 0 (1957) 398 55 80 124 148 218 471 589 820 1270
2019-10-07 23:30 20.27 41900 5670 (1999) 0 (1957) 453 60 78 123 145 218 421 573 738 1580
2019-10-07 22:30 20.16 41300 5670 (1999) 0 (1957) 453 60 78 123 145 218 421 573 738 1580
2019-10-07 21:30 20.42 42600 5670 (1999) 0 (1957) 453 60 78 123 145 218 421 573 738 1580
2019-10-07 20:30 20.81 44600 5670 (1999) 0 (1957) 453 60 78 123 145 218 421 573 738 1580
2019-10-07 19:30 21.10 46200 5670 (1999) 0 (1957) 453 60 78 123 145 218 421 573 738 1580
2019-10-07 18:30 21.07 46000 5670 (1999) 0 (1957) 453 60 78 123 145 218 421 573 738 1580
2019-10-07 17:30 21.04 45900 5670 (1999) 0 (1957) 453 60 78 123 145 218 421 573 738 1580
2019-10-07 16:30 20.88 45000 5670 (1999) 0 (1957) 453 60 78 123 145 218 421 573 738 1580
2019-10-07 15:30 20.23 41700 5670 (1999) 0 (1957) 453 60 78 123 145 218 421 573 738 1580
2019-10-07 14:30 19.15 36700 5670 (1999) 0 (1957) 453 60 78 123 145 218 421 573 738 1580
2019-10-07 13:30 18.06 32000 5670 (1999) 0 (1957) 453 60 78 123 145 218 421 573 738 1580
2019-10-07 12:30 16.47 25600 5670 (1999) 0 (1957) 453 60 78 123 145 218 421 573 738 1580
2019-10-07 11:30 15.31 21400 5670 (1999) 0 (1957) 453 60 78 123 145 218 421 573 738 1580
2019-10-07 10:30 14.42 18400 5670 (1999) 0 (1957) 453 60 78 123 145 218 421 573 738 1580
2019-10-07 09:30 13.66 16000 5670 (1999) 0 (1957) 453 60 78 123 145 218 421 573 738 1580
2019-10-07 08:30 13.09 14300 5670 (1999) 0 (1957) 453 60 78 123 145 218 421 573 738 1580
2019-10-07 07:30 12.65 13100 5670 (1999) 0 (1957) 453 60 78 123 145 218 421 573 738 1580
2019-10-07 06:30 12.22 11900 5670 (1999) 0 (1957) 453 60 78 123 145 218 421 573 738 1580
2019-10-07 05:30 11.77 10800 5670 (1999) 0 (1957) 453 60 78 123 145 218 421 573 738 1580
2019-10-07 04:30 11.25 9510 5670 (1999) 0 (1957) 453 60 78 123 145 218 421 573 738 1580
2019-10-07 03:30 10.65 8130 5670 (1999) 0 (1957) 453 60 78 123 145 218 421 573 738 1580
2019-10-07 02:30 9.76 6280 5670 (1999) 0 (1957) 453 60 78 123 145 218 421 573 738 1580
2019-10-07 01:30 8.60 4210 5670 (1999) 0 (1957) 453 60 78 123 145 218 421 573 738 1580
2019-10-07 00:30 7.03 1840 5670 (1999) 0 (1957) 453 60 78 123 145 218 421 573 738 1580
2019-10-06 23:30 6.05 757 5970 (1960) 0 (1957) 478 62 81 122 145 223 432 560 936 1500
2019-10-06 22:30 5.99 710 5970 (1960) 0 (1957) 478 62 81 122 145 223 432 560 936 1500
2019-10-06 21:30 5.97 696 5970 (1960) 0 (1957) 478 62 81 122 145 223 432 560 936 1500
2019-10-06 20:30 5.96 689 5970 (1960) 0 (1957) 478 62 81 122 145 223 432 560 936 1500
2019-10-06 19:30 5.96 689 5970 (1960) 0 (1957) 478 62 81 122 145 223 432 560 936 1500
2019-10-06 18:30 5.93 668 5970 (1960) 0 (1957) 478 62 81 122 145 223 432 560 936 1500
2019-10-06 17:30 5.92 661 5970 (1960) 0 (1957) 478 62 81 122 145 223 432 560 936 1500
2019-10-06 16:30 5.94 675 5970 (1960) 0 (1957) 478 62 81 122 145 223 432 560 936 1500
2019-10-06 15:30 5.92 661 5970 (1960) 0 (1957) 478 62 81 122 145 223 432 560 936 1500
2019-10-06 14:30 5.89 641 5970 (1960) 0 (1957) 478 62 81 122 145 223 432 560 936 1500
2019-10-06 13:30 5.88 634 5970 (1960) 0 (1957) 478 62 81 122 145 223 432 560 936 1500
2019-10-06 12:30 5.87 627 5970 (1960) 0 (1957) 478 62 81 122 145 223 432 560 936 1500
2019-10-06 11:30 5.86 621 5970 (1960) 0 (1957) 478 62 81 122 145 223 432 560 936 1500
2019-10-06 10:30 5.83 602 5970 (1960) 0 (1957) 478 62 81 122 145 223 432 560 936 1500
2019-10-06 09:30 5.84 608 5970 (1960) 0 (1957) 478 62 81 122 145 223 432 560 936 1500
2019-10-06 08:30 5.84 608 5970 (1960) 0 (1957) 478 62 81 122 145 223 432 560 936 1500
2019-10-06 07:30 5.86 621 5970 (1960) 0 (1957) 478 62 81 122 145 223 432 560 936 1500
2019-10-06 06:30 5.87 627 5970 (1960) 0 (1957) 478 62 81 122 145 223 432 560 936 1500
2019-10-06 05:30 5.88 634 5970 (1960) 0 (1957) 478 62 81 122 145 223 432 560 936 1500
2019-10-06 04:30 5.90 647 5970 (1960) 0 (1957) 478 62 81 122 145 223 432 560 936 1500
2019-10-06 03:30 5.89 641 5970 (1960) 0 (1957) 478 62 81 122 145 223 432 560 936 1500
2019-10-06 02:30 5.90 647 5970 (1960) 0 (1957) 478 62 81 122 145 223 432 560 936 1500
2019-10-06 01:30 5.86 621 5970 (1960) 0 (1957) 478 62 81 122 145 223 432 560 936 1500
2019-10-06 00:30 5.84 608 5970 (1960) 0 (1957) 478 62 81 122 145 223 432 560 936 1500

A total of 189 rows are displayed for years 1936 through 2019.

Trips for Illinois River (Oklahoma), Tahlequah (07196500)

DateStartEndDistanceConditionDischargeHeightFishingDetails

A total of 0 rows are displayed.

Condition Descriptions

Fishing Conditions

Fish Species

Notes

Classic Trip List

The classic River Trips application is still available for use. It is updated with the new system using a data retrofit. It is no longer maintained. The original River Trips application is no longer updated (as of 1 Dec 2016) but can be checked for errors or for the condition of the data before it was converted to the new system.